createdAt,value
2023-02-11T00:01:27.981Z,2.63
2023-02-11T00:03:56.255Z,2.63
2023-02-11T00:06:25.231Z,2.62
2023-02-11T00:08:53.568Z,2.61
2023-02-11T00:11:24.940Z,2.62
2023-02-11T00:13:53.374Z,2.61
2023-02-11T00:16:21.426Z,2.59
2023-02-11T00:18:52.403Z,2.57
2023-02-11T00:21:22.841Z,2.57
2023-02-11T00:23:51.340Z,2.56
2023-02-11T00:26:21.495Z,2.56
2023-02-11T00:28:51.106Z,2.58
2023-02-11T00:31:20.323Z,2.60
2023-02-11T00:33:49.702Z,2.60
2023-02-11T00:36:20.006Z,2.61
2023-02-11T00:38:49.645Z,2.61
2023-02-11T00:41:18.540Z,2.61
2023-02-11T00:43:47.208Z,2.62
2023-02-11T00:46:15.942Z,2.63
2023-02-11T00:48:44.333Z,2.63
2023-02-11T00:51:12.771Z,2.63
2023-02-11T00:53:40.677Z,2.62
2023-02-11T00:56:09.336Z,2.61
2023-02-11T00:58:37.483Z,2.59
2023-02-11T01:01:07.198Z,2.59
2023-02-11T01:03:35.195Z,2.56
2023-02-11T01:06:03.424Z,2.55
2023-02-11T01:08:31.567Z,2.54
2023-02-11T01:11:02.373Z,2.52
2023-02-11T01:13:32.796Z,2.52
2023-02-11T01:16:00.923Z,2.53
2023-02-11T01:18:29.264Z,2.55
2023-02-11T01:20:57.402Z,2.54
2023-02-11T01:23:25.504Z,2.56
2023-02-11T01:25:53.775Z,2.57
2023-02-11T01:28:24.374Z,2.59
2023-02-11T01:30:54.116Z,2.59
2023-02-11T01:33:23.543Z,2.58
2023-02-11T01:35:52.421Z,2.56
2023-02-11T01:38:23.217Z,2.56
2023-02-11T01:40:54.711Z,2.57
2023-02-11T01:43:24.151Z,2.57
2023-02-11T01:46:02.948Z,2.59
2023-02-11T01:48:37.475Z,2.61
2023-02-11T01:51:10.637Z,2.63
2023-02-11T01:53:58.263Z,2.64
2023-02-11T01:56:46.581Z,2.66
2023-02-11T01:59:20.016Z,2.67
2023-02-11T02:01:52.850Z,2.66
2023-02-11T02:04:26.474Z,2.65
2023-02-11T02:07:01.669Z,2.64
2023-02-11T02:09:37.623Z,2.64
2023-02-11T02:12:05.998Z,2.64
2023-02-11T02:14:37.004Z,2.63
2023-02-11T02:17:07.049Z,2.63
2023-02-11T02:20:14.222Z,2.61
2023-02-11T02:23:05.018Z,2.61
2023-02-11T02:26:19.455Z,2.60
2023-02-11T02:29:19.498Z,2.57
2023-02-11T02:32:05.303Z,2.55
2023-02-11T02:34:43.383Z,2.54
2023-02-11T02:37:19.565Z,2.55
2023-02-11T02:39:50.172Z,2.56
2023-02-11T02:42:20.279Z,2.55
2023-02-11T02:44:50.318Z,2.54
2023-02-11T02:47:19.228Z,2.54
2023-02-11T02:49:47.790Z,2.53
2023-02-11T02:52:29.807Z,2.52
2023-02-11T02:55:24.266Z,2.51
2023-02-11T02:58:14.150Z,2.52
2023-02-11T03:00:49.850Z,2.53
2023-02-11T03:03:29.879Z,2.52
2023-02-11T03:06:03.777Z,2.53
2023-02-11T03:08:38.830Z,2.54
2023-02-11T03:11:09.676Z,2.55
2023-02-11T03:13:39.967Z,2.54
2023-02-11T03:16:13.272Z,2.54
2023-02-11T03:18:47.391Z,2.54
2023-02-11T03:21:18.237Z,2.55
2023-02-11T03:23:52.775Z,2.56
2023-02-11T03:26:26.635Z,2.55
2023-02-11T03:29:00.735Z,2.55
2023-02-11T03:31:33.907Z,2.56
2023-02-11T03:34:10.130Z,2.56
2023-02-11T03:36:45.369Z,2.57
2023-02-11T03:39:23.154Z,2.58
2023-02-11T03:41:54.896Z,2.59
2023-02-11T03:44:27.551Z,2.57
2023-02-11T03:46:56.438Z,2.57
2023-02-11T03:49:28.566Z,2.57
2023-02-11T03:51:57.887Z,2.56
2023-02-11T03:54:29.986Z,2.58
2023-02-11T03:57:00.459Z,2.58
2023-02-11T03:59:29.428Z,2.58
2023-02-11T04:01:58.896Z,2.58
2023-02-11T04:04:26.934Z,2.57
2023-02-11T04:06:55.012Z,2.57
2023-02-11T04:09:23.188Z,2.54
2023-02-11T04:11:51.236Z,2.53
2023-02-11T04:14:19.289Z,2.51
2023-02-11T04:16:47.242Z,2.50
2023-02-11T04:19:15.351Z,2.48
2023-02-11T04:21:43.362Z,2.47
2023-02-11T04:24:11.413Z,2.46
2023-02-11T04:26:39.431Z,2.46
2023-02-11T04:29:07.448Z,2.45
2023-02-11T04:31:35.485Z,2.45
2023-02-11T04:34:03.510Z,2.42
2023-02-11T04:36:31.558Z,2.40
2023-02-11T04:39:00.023Z,2.39
2023-02-11T04:41:27.948Z,2.38
2023-02-11T04:43:55.920Z,2.36
2023-02-11T04:46:24.031Z,2.34
2023-02-11T04:48:51.991Z,2.30
2023-02-11T04:51:20.051Z,2.28
2023-02-11T04:53:47.981Z,2.27
2023-02-11T04:56:15.940Z,2.26
2023-02-11T04:58:44.455Z,2.24
2023-02-11T05:01:15.241Z,2.22
2023-02-11T05:03:43.526Z,2.21
2023-02-11T05:06:12.116Z,2.20
2023-02-11T05:08:40.154Z,2.19
2023-02-11T05:11:14.595Z,2.19
2023-02-11T05:13:43.801Z,2.20
2023-02-11T05:16:12.552Z,2.21
2023-02-11T05:18:42.231Z,2.21
2023-02-11T05:21:12.342Z,2.23
2023-02-11T05:23:41.260Z,2.24
2023-02-11T05:26:10.047Z,2.25
2023-02-11T05:28:38.611Z,2.26
2023-02-11T05:31:06.768Z,2.28
2023-02-11T05:33:35.026Z,2.28
2023-02-11T05:36:07.632Z,2.28
2023-02-11T05:38:36.296Z,2.29
2023-02-11T05:41:05.688Z,2.30
2023-02-11T05:43:34.735Z,2.33
2023-02-11T05:46:03.472Z,2.34
2023-02-11T05:48:31.988Z,2.35
2023-02-11T05:51:00.117Z,2.37
2023-02-11T05:53:28.112Z,2.39
2023-02-11T05:55:56.879Z,2.40
2023-02-11T05:58:24.840Z,2.42
2023-02-11T06:00:53.056Z,2.41
2023-02-11T06:03:21.096Z,2.40
2023-02-11T06:05:49.404Z,2.40
2023-02-11T06:08:17.682Z,2.40
2023-02-11T06:10:46.327Z,2.40
2023-02-11T06:13:17.995Z,2.40
2023-02-11T06:15:55.036Z,2.41
2023-02-11T06:18:23.054Z,2.43
2023-02-11T06:20:51.101Z,2.44
2023-02-11T06:23:19.127Z,2.46
2023-02-11T06:25:47.088Z,2.48
2023-02-11T06:28:15.153Z,2.49
2023-02-11T06:30:44.428Z,2.51
2023-02-11T06:33:12.496Z,2.53
2023-02-11T06:35:40.600Z,2.56
2023-02-11T06:38:08.668Z,2.58
2023-02-11T06:40:36.788Z,2.61
2023-02-11T06:43:04.997Z,2.64
2023-02-11T06:45:33.034Z,2.66
2023-02-11T06:48:01.000Z,2.68
2023-02-11T06:50:28.961Z,2.73
2023-02-11T06:52:58.412Z,2.76
2023-02-11T06:55:26.363Z,2.79
2023-02-11T06:57:54.416Z,2.80
2023-02-11T07:00:26.034Z,2.80
2023-02-11T07:02:54.196Z,2.82
2023-02-11T07:05:22.485Z,2.83
2023-02-11T07:07:50.414Z,2.84
2023-02-11T07:10:18.692Z,2.85
2023-02-11T07:12:47.146Z,2.86
2023-02-11T07:15:15.188Z,2.87
2023-02-11T07:17:43.197Z,2.86
2023-02-11T07:20:14.012Z,2.86
2023-02-11T07:22:42.013Z,2.86
2023-02-11T07:25:09.994Z,2.86
2023-02-11T07:27:37.997Z,2.85
2023-02-11T07:30:07.800Z,2.85
2023-02-11T07:32:35.800Z,2.86
2023-02-11T07:35:04.309Z,2.87
2023-02-11T07:37:34.119Z,2.86
2023-02-11T07:40:02.138Z,2.85
2023-02-11T07:42:30.125Z,2.85
2023-02-11T07:44:58.170Z,2.83
2023-02-11T07:47:26.287Z,2.82
2023-02-11T07:49:56.564Z,2.82
2023-02-11T07:52:24.860Z,2.81
2023-02-11T07:54:52.849Z,2.81
2023-02-11T07:57:21.300Z,2.82
2023-02-11T07:59:49.207Z,2.80
2023-02-11T08:02:17.290Z,2.79
2023-02-11T08:04:46.928Z,2.78
2023-02-11T08:07:16.459Z,2.79
2023-02-11T08:09:44.865Z,2.79
2023-02-11T08:12:13.118Z,2.81
2023-02-11T08:14:41.191Z,2.82
2023-02-11T08:17:09.326Z,2.85
2023-02-11T08:19:38.563Z,2.88
2023-02-11T08:22:06.530Z,2.91
2023-02-11T08:24:34.545Z,2.94
2023-02-11T08:27:02.640Z,2.96
2023-02-11T08:29:30.699Z,3.00
2023-02-11T08:31:58.669Z,2.99
2023-02-11T08:34:26.607Z,3.00
2023-02-11T08:36:54.521Z,2.99
2023-02-11T08:39:23.388Z,2.97
2023-02-11T08:41:53.267Z,2.96
2023-02-11T08:44:22.646Z,2.95
2023-02-11T08:46:51.882Z,2.95
2023-02-11T08:49:20.481Z,2.96
2023-02-11T08:51:50.230Z,2.95
2023-02-11T08:54:18.900Z,2.96
2023-02-11T08:56:50.558Z,2.96
2023-02-11T08:59:18.594Z,2.96
2023-02-11T09:01:48.082Z,2.96
2023-02-11T09:04:16.247Z,2.97
2023-02-11T09:06:44.427Z,2.95
2023-02-11T09:09:30.770Z,2.94
2023-02-11T09:12:00.640Z,2.95
2023-02-11T09:14:28.644Z,2.95
2023-02-11T09:16:57.712Z,2.94
2023-02-11T09:19:25.699Z,2.94
2023-02-11T09:21:53.746Z,2.94
2023-02-11T09:24:22.269Z,2.94
2023-02-11T09:26:50.413Z,2.93
2023-02-11T09:29:18.529Z,2.93
2023-02-11T09:31:47.814Z,2.95
2023-02-11T09:34:16.042Z,2.95
2023-02-11T09:36:44.229Z,2.95
2023-02-11T09:39:21.667Z,2.96
2023-02-11T09:42:15.914Z,2.97
2023-02-11T09:44:46.257Z,2.99
2023-02-11T09:47:24.722Z,3.00
2023-02-11T09:49:59.872Z,2.99
2023-02-11T09:52:35.736Z,3.00
2023-02-11T09:55:05.628Z,3.00
2023-02-11T09:57:36.235Z,3.00
2023-02-11T10:00:19.238Z,3.01
2023-02-11T10:03:04.338Z,2.99
2023-02-11T10:05:49.461Z,2.98
2023-02-11T10:08:29.288Z,2.99
2023-02-11T10:11:08.506Z,2.99
2023-02-11T10:13:57.287Z,3.01
2023-02-11T10:16:45.264Z,3.03
2023-02-11T10:22:32.104Z,3.07
2023-02-11T10:25:09.803Z,3.06
2023-02-11T10:27:37.875Z,3.05
2023-02-11T10:30:17.882Z,3.04
2023-02-11T10:32:51.772Z,3.04
2023-02-11T10:35:22.145Z,3.05
2023-02-11T10:37:57.593Z,3.05
2023-02-11T10:40:27.840Z,3.07
2023-02-11T10:42:59.084Z,3.08
2023-02-11T10:45:32.546Z,3.08
2023-02-11T10:48:03.229Z,3.10
2023-02-11T10:50:36.157Z,3.09
2023-02-11T10:53:19.152Z,3.10
2023-02-11T10:55:53.177Z,3.08
2023-02-11T10:58:27.844Z,3.06
2023-02-11T11:00:58.637Z,3.08
2023-02-11T11:03:28.852Z,3.07
2023-02-11T11:05:59.583Z,3.07
2023-02-11T11:08:40.102Z,3.07
2023-02-11T11:11:09.975Z,3.09
2023-02-11T11:13:40.379Z,3.06
2023-02-11T11:16:17.921Z,3.05
2023-02-11T11:18:49.549Z,3.07
2023-02-11T11:21:21.424Z,3.10
2023-02-11T11:23:53.556Z,3.11
2023-02-11T11:26:22.858Z,3.12
2023-02-11T11:28:57.737Z,3.14
2023-02-11T11:31:29.529Z,3.16
2023-02-11T11:34:00.375Z,3.16
2023-02-11T11:36:38.728Z,3.17
2023-02-11T11:39:22.433Z,3.16
2023-02-11T11:41:53.634Z,3.18
2023-02-11T11:44:30.243Z,3.19
2023-02-11T11:47:24.726Z,3.20
2023-02-11T11:50:05.426Z,3.20
2023-02-11T11:52:44.928Z,3.21
2023-02-11T11:55:19.442Z,3.22
2023-02-11T11:57:48.771Z,3.24
2023-02-11T12:00:21.202Z,3.25
2023-02-11T12:03:06.509Z,3.26
2023-02-11T12:05:42.378Z,3.28
2023-02-11T12:08:21.669Z,3.31
2023-02-11T12:10:59.740Z,3.32
2023-02-11T12:13:40.693Z,3.31
2023-02-11T12:16:18.978Z,3.30
2023-02-11T12:19:14.278Z,3.28
2023-02-11T12:21:52.785Z,3.29
2023-02-11T12:24:36.908Z,3.30
2023-02-11T12:27:13.093Z,3.31
2023-02-11T12:29:55.747Z,3.32
2023-02-11T12:32:32.850Z,3.31
2023-02-11T12:35:13.977Z,3.32
2023-02-11T12:37:58.332Z,3.35
2023-02-11T12:40:36.590Z,3.36
2023-02-11T12:43:19.867Z,3.39
2023-02-11T12:46:00.942Z,3.42
2023-02-11T12:48:57.644Z,3.45
2023-02-11T12:51:41.733Z,3.49
2023-02-11T12:54:24.247Z,3.51
2023-02-11T12:57:01.476Z,3.56
2023-02-11T12:59:44.588Z,3.59
2023-02-11T13:02:26.346Z,3.63
2023-02-11T13:04:57.195Z,3.67
2023-02-11T13:07:31.071Z,3.69
2023-02-11T13:10:15.804Z,3.71
2023-02-11T13:13:06.364Z,3.72
2023-02-11T13:15:34.977Z,3.71
2023-02-11T13:18:12.596Z,3.70
2023-02-11T13:20:48.092Z,3.71
2023-02-11T13:23:26.025Z,3.71
2023-02-11T13:26:03.836Z,3.73
2023-02-11T13:28:44.602Z,3.76
2023-02-11T13:32:11.491Z,3.77
2023-02-11T13:35:01.846Z,3.76
2023-02-11T13:37:38.555Z,3.77
2023-02-11T13:40:24.956Z,3.79
2023-02-11T13:43:20.872Z,3.82
2023-02-11T13:45:49.521Z,3.85
2023-02-11T13:48:25.034Z,3.85
2023-02-11T13:50:58.664Z,3.87
2023-02-11T13:53:30.904Z,3.87
2023-02-11T13:56:09.632Z,3.90
2023-02-11T13:58:46.634Z,3.93
2023-02-11T14:01:42.782Z,3.95
2023-02-11T14:04:40.874Z,3.98
2023-02-11T14:07:49.824Z,4.01
2023-02-11T14:10:50.398Z,4.02
2023-02-11T14:13:25.642Z,4.01
2023-02-11T14:16:09.005Z,4.03
2023-02-11T14:18:59.775Z,4.03
2023-02-11T14:21:38.496Z,4.06
2023-02-11T14:24:46.427Z,4.08
2023-02-11T14:27:23.663Z,4.09
2023-02-11T14:30:12.514Z,4.11
2023-02-11T14:32:58.177Z,4.12
2023-02-11T14:35:35.367Z,4.14
2023-02-11T14:38:14.422Z,4.16
2023-02-11T14:40:51.501Z,4.17
2023-02-11T14:43:24.193Z,4.17
2023-02-11T14:45:59.364Z,4.18
2023-02-11T14:48:34.410Z,4.19
2023-02-11T14:51:06.890Z,4.19
2023-02-11T14:53:36.738Z,4.19
2023-02-11T14:56:18.384Z,4.20
2023-02-11T14:58:51.170Z,4.23
2023-02-11T15:01:31.816Z,4.25
2023-02-11T15:04:02.261Z,4.27
2023-02-11T15:06:33.015Z,4.29
2023-02-11T15:09:06.198Z,4.32
2023-02-11T15:11:41.063Z,4.34
2023-02-11T15:14:19.142Z,4.36
2023-02-11T15:16:49.468Z,4.36
2023-02-11T15:19:26.762Z,4.38
2023-02-11T15:21:56.264Z,4.38
2023-02-11T15:25:09.804Z,4.40
2023-02-11T15:27:42.396Z,4.42
2023-02-11T15:30:33.516Z,4.43
2023-02-11T15:33:06.241Z,4.44
2023-02-11T15:35:37.230Z,4.46
2023-02-11T15:38:06.010Z,4.48
2023-02-11T15:40:36.231Z,4.50
2023-02-11T15:43:09.575Z,4.51
2023-02-11T15:45:40.281Z,4.52
2023-02-11T15:48:12.718Z,4.53
2023-02-11T15:50:42.703Z,4.53
2023-02-11T15:53:22.912Z,4.53
2023-02-11T15:55:54.070Z,4.54
2023-02-11T15:58:23.120Z,4.55
2023-02-11T16:00:59.064Z,4.56
2023-02-11T16:03:31.878Z,4.57
2023-02-11T16:06:18.617Z,4.58
2023-02-11T16:08:58.942Z,4.59
2023-02-11T16:11:30.619Z,4.59
2023-02-11T16:14:00.158Z,4.60
2023-02-11T16:16:31.603Z,4.61
2023-02-11T16:19:05.366Z,4.63
2023-02-11T16:21:38.325Z,4.65
2023-02-11T16:24:08.408Z,4.67
2023-02-11T16:26:40.307Z,4.68
2023-02-11T16:29:15.073Z,4.71
2023-02-11T16:31:46.294Z,4.74
2023-02-11T16:34:19.325Z,4.75
2023-02-11T16:36:48.474Z,4.77
2023-02-11T16:39:17.699Z,4.79
2023-02-11T16:41:45.936Z,4.80
2023-02-11T16:44:14.204Z,4.82
2023-02-11T16:46:42.836Z,4.85
2023-02-11T16:49:16.254Z,4.88
2023-02-11T16:51:47.464Z,4.91
2023-02-11T16:54:16.940Z,4.94
2023-02-11T16:56:44.997Z,4.96
2023-02-11T16:59:13.322Z,4.98
2023-02-11T17:01:43.825Z,5.00
2023-02-11T17:04:18.246Z,5.02
2023-02-11T17:06:47.547Z,5.04
2023-02-11T17:09:19.708Z,5.07
2023-02-11T17:11:48.770Z,5.09
2023-02-11T17:14:17.697Z,5.11
2023-02-11T17:16:48.265Z,5.14
2023-02-11T17:19:19.173Z,5.15
2023-02-11T17:21:49.348Z,5.18
2023-02-11T17:24:17.998Z,5.19
2023-02-11T17:26:46.575Z,5.21
2023-02-11T17:29:18.296Z,5.23
2023-02-11T17:31:46.329Z,5.25
2023-02-11T17:34:14.788Z,5.28
2023-02-11T17:36:42.801Z,5.31
2023-02-11T17:39:11.120Z,5.34
2023-02-11T17:41:39.896Z,5.36
2023-02-11T17:44:11.580Z,5.37
2023-02-11T17:46:39.592Z,5.40
2023-02-11T17:49:07.715Z,5.42
2023-02-11T17:51:37.454Z,5.43
2023-02-11T17:54:07.582Z,5.45
2023-02-11T17:56:36.829Z,5.47
2023-02-11T17:59:07.684Z,5.48
2023-02-11T18:01:37.668Z,5.50
2023-02-11T18:04:07.551Z,5.51
2023-02-11T18:06:36.564Z,5.53
2023-02-11T18:09:04.826Z,5.54
2023-02-11T18:11:36.496Z,5.56
2023-02-11T18:14:07.188Z,5.57
2023-02-11T18:16:38.552Z,5.57
2023-02-11T18:19:07.555Z,5.59
2023-02-11T18:21:35.809Z,5.61
2023-02-11T18:24:07.024Z,5.63
2023-02-11T18:26:35.186Z,5.64
2023-02-11T18:29:06.314Z,5.65
2023-02-11T18:31:35.826Z,5.67
2023-02-11T18:34:06.830Z,5.68
2023-02-11T18:36:37.260Z,5.71
2023-02-11T18:39:05.865Z,5.71
2023-02-11T18:41:36.212Z,5.74
2023-02-11T18:44:05.392Z,5.75
2023-02-11T18:46:33.929Z,5.77
2023-02-11T18:49:02.021Z,5.78
2023-02-11T18:51:31.892Z,5.79
2023-02-11T18:54:01.171Z,5.81
2023-02-11T18:56:29.316Z,5.82
2023-02-11T18:59:00.400Z,5.83
2023-02-11T19:01:30.492Z,5.84
2023-02-11T19:04:02.078Z,5.85
2023-02-11T19:06:32.534Z,5.84
2023-02-11T19:09:04.244Z,5.84
2023-02-11T19:11:49.699Z,5.84
2023-02-11T19:14:21.048Z,5.85
2023-02-11T19:16:50.640Z,5.86
2023-02-11T19:19:19.998Z,5.87
2023-02-11T19:21:48.421Z,5.88
2023-02-11T19:24:19.153Z,5.88
2023-02-11T19:26:49.369Z,5.89
2023-02-11T19:29:18.148Z,5.89
2023-02-11T19:31:46.710Z,5.89
2023-02-11T19:34:16.705Z,5.88
2023-02-11T19:36:44.789Z,5.88
2023-02-11T19:39:13.638Z,5.90
2023-02-11T19:41:41.734Z,5.90
2023-02-11T19:44:09.891Z,5.90
2023-02-11T19:46:40.343Z,5.90
2023-02-11T19:49:09.575Z,5.90
2023-02-11T19:51:38.745Z,5.89
2023-02-11T19:54:08.137Z,5.90
2023-02-11T19:56:37.248Z,5.90
2023-02-11T19:59:08.181Z,5.90
2023-02-11T20:01:36.597Z,5.92
2023-02-11T20:04:05.400Z,5.93
2023-02-11T20:06:34.441Z,5.94
2023-02-11T20:09:05.583Z,5.95
2023-02-11T20:11:34.451Z,5.96
2023-02-11T20:14:03.479Z,5.98
2023-02-11T20:16:46.920Z,5.98
2023-02-11T20:19:19.357Z,5.99
2023-02-11T20:21:50.557Z,5.99
2023-02-11T20:24:19.276Z,5.98
2023-02-11T20:26:47.858Z,5.98
2023-02-11T20:29:16.569Z,5.99
2023-02-11T20:31:46.013Z,6.00
2023-02-11T20:34:16.851Z,6.01
2023-02-11T20:36:50.891Z,6.01
2023-02-11T20:39:21.557Z,6.02
2023-02-11T20:41:53.271Z,6.01
2023-02-11T20:44:22.813Z,6.00
2023-02-11T20:46:53.334Z,5.99
2023-02-11T20:49:23.954Z,5.99
2023-02-11T20:51:53.021Z,5.98
2023-02-11T20:54:23.258Z,5.97
2023-02-11T20:56:52.977Z,5.94
2023-02-11T20:59:22.816Z,5.93
2023-02-11T21:01:53.613Z,5.92
2023-02-11T21:04:23.653Z,5.92
2023-02-11T21:06:54.840Z,5.92
2023-02-11T21:09:27.961Z,5.92
2023-02-11T21:11:56.444Z,5.91
2023-02-11T21:14:25.838Z,5.91
2023-02-11T21:16:54.688Z,5.90
2023-02-11T21:19:23.139Z,5.89
2023-02-11T21:21:51.428Z,5.87
2023-02-11T21:24:19.900Z,5.82
2023-02-11T21:26:48.251Z,5.75
2023-02-11T21:29:16.398Z,5.67
2023-02-11T21:31:44.686Z,5.60
2023-02-11T21:34:15.220Z,5.51
2023-02-11T21:36:44.709Z,5.42
2023-02-11T21:39:13.421Z,5.32
2023-02-11T21:41:41.771Z,5.24
2023-02-11T21:44:10.103Z,5.16
2023-02-11T21:46:38.646Z,5.12
2023-02-11T21:49:06.653Z,5.05
2023-02-11T21:51:34.986Z,5.00
2023-02-11T21:54:03.881Z,4.94
2023-02-11T21:56:33.767Z,4.85
2023-02-11T21:59:01.826Z,4.78
2023-02-11T22:01:34.710Z,4.73
2023-02-11T22:04:04.290Z,4.70
2023-02-11T22:06:34.339Z,4.66
2023-02-11T22:09:06.604Z,4.63
2023-02-11T22:11:35.381Z,4.58
2023-02-11T22:14:03.775Z,4.55
2023-02-11T22:16:32.114Z,4.52
2023-02-11T22:19:01.964Z,4.49
2023-02-11T22:21:30.468Z,4.47
2023-02-11T22:23:58.713Z,4.44
2023-02-11T22:26:28.309Z,4.41
2023-02-11T22:28:56.970Z,4.38
2023-02-11T22:31:28.855Z,4.37
2023-02-11T22:33:57.964Z,4.36
2023-02-11T22:36:28.052Z,4.35
2023-02-11T22:38:59.269Z,4.32
2023-02-11T22:41:27.824Z,4.31
2023-02-11T22:43:58.126Z,4.30
2023-02-11T22:46:27.447Z,4.26
2023-02-11T22:48:56.182Z,4.23
2023-02-11T22:51:26.904Z,4.21
2023-02-11T22:53:56.910Z,4.19
2023-02-11T22:56:26.419Z,4.16
2023-02-11T22:58:57.946Z,4.13
2023-02-11T23:01:26.699Z,4.08
2023-02-11T23:03:55.506Z,4.01
2023-02-11T23:06:24.192Z,3.97
2023-02-11T23:08:52.433Z,3.94
2023-02-11T23:11:22.244Z,3.88
2023-02-11T23:13:53.243Z,3.79
2023-02-11T23:16:23.684Z,3.70
2023-02-11T23:18:52.504Z,3.63
2023-02-11T23:21:22.323Z,3.55
2023-02-11T23:23:55.265Z,3.45
2023-02-11T23:26:25.444Z,3.35
2023-02-11T23:28:53.581Z,3.24
2023-02-11T23:31:23.983Z,3.15
2023-02-11T23:33:52.562Z,3.09
2023-02-11T23:36:22.135Z,3.03
2023-02-11T23:38:50.623Z,2.99
2023-02-11T23:41:19.492Z,2.98
2023-02-11T23:43:50.760Z,2.97
2023-02-11T23:46:19.242Z,2.95
2023-02-11T23:48:47.293Z,2.94
2023-02-11T23:51:15.349Z,2.93
2023-02-11T23:53:45.088Z,2.91
2023-02-11T23:56:16.659Z,2.88
2023-02-11T23:58:46.831Z,2.86
